Time;durP1;ratioP1;P1;durP2;ratioP2;P2;SDS_P1;SDS_P2;PMS_P1;PMS_P2;Temp;Humidity;BMP_temperature;BMP_pressure;BME280_temperature;BME280_humidity;BME280_pressure;Samples;Min_cycle;Max_cycle;Signal;HPM_P1;HPM_P2
2022/10/28 00:00:31;;;;;;;52.38;30.70;;;;;;;4.10;90.32;95855.66;1696225;84;21048;-65
2022/10/28 00:03:01;;;;;;;46.63;26.48;;;;;;;4.10;90.42;95862.46;1700627;82;21140;-63
2022/10/28 00:05:28;;;;;;;47.20;27.58;;;;;;;4.05;90.29;95869.03;1690256;83;21023;-64
2022/10/28 00:07:55;;;;;;;55.43;28.67;;;;;;;3.95;90.21;95861.59;1672785;84;21162;-63
2022/10/28 00:10:22;;;;;;;53.15;28.73;;;;;;;3.89;90.53;95868.52;1701601;84;21053;-63
2022/10/28 00:12:49;;;;;;;36.45;25.15;;;;;;;3.83;90.55;95871.39;1696069;83;21251;-64
2022/10/28 00:15:17;;;;;;;49.53;26.42;;;;;;;3.80;90.68;95865.91;1698235;83;21062;-63
2022/10/28 00:17:45;;;;;;;43.00;24.82;;;;;;;3.79;90.82;95865.14;1691973;83;21018;-64
2022/10/28 00:20:14;;;;;;;43.35;25.30;;;;;;;3.83;91.23;95861.87;1699398;84;21231;-65
2022/10/28 00:22:42;;;;;;;40.48;25.52;;;;;;;3.88;91.44;95860.15;1702273;83;20961;-63
2022/10/28 00:25:09;;;;;;;52.78;29.42;;;;;;;3.94;91.69;95857.86;1675586;83;20971;-63
2022/10/28 00:27:36;;;;;;;58.30;32.30;;;;;;;4.01;91.58;95858.70;1700215;84;21507;-63
2022/10/28 00:30:05;;;;;;;49.93;27.48;;;;;;;4.12;91.70;95855.48;1699087;84;21489;-64
2022/10/28 00:32:33;;;;;;;46.13;26.75;;;;;;;4.23;91.47;95859.64;1677399;83;21300;-65
2022/10/28 00:35:00;;;;;;;44.42;25.43;;;;;;;4.23;91.22;95856.91;1708507;83;20968;-64
2022/10/28 00:37:27;;;;;;;49.48;25.72;;;;;;;4.21;91.11;95862.73;1697873;83;20989;-64
2022/10/28 00:39:54;;;;;;;46.08;25.70;;;;;;;4.19;91.04;95859.61;1688632;83;21011;-63
2022/10/28 00:42:21;;;;;;;46.70;24.20;;;;;;;4.19;91.25;95860.97;1696243;83;21536;-64
2022/10/28 00:44:59;;;;;;;50.48;27.37;;;;;;;4.22;91.28;95865.66;1699465;83;21278;-64
2022/10/28 00:47:59;;;;;;;53.23;26.77;;;;;;;4.19;91.14;95860.97;1688795;84;21006;-64
2022/10/28 00:50:41;;;;;;;63.05;28.73;;;;;;;4.14;91.17;95857.81;1693961;83;21031;-64
2022/10/28 00:53:18;;;;;;;47.65;26.00;;;;;;;4.04;91.36;95855.22;1703094;83;21085;-64
2022/10/28 00:55:45;;;;;;;46.58;25.72;;;;;;;3.98;91.52;95847.78;1700484;83;21074;-61
2022/10/28 00:58:12;;;;;;;45.78;26.60;;;;;;;3.94;91.90;95848.34;1706229;83;21202;-64
2022/10/28 01:00:38;;;;;;;52.62;29.05;;;;;;;3.97;92.03;95848.38;1695137;83;21039;-64
2022/10/28 01:03:05;;;;;;;62.45;32.23;;;;;;;3.97;92.00;95845.66;1712717;83;21068;-64
2022/10/28 01:05:35;;;;;;;54.55;27.93;;;;;;;3.99;92.34;95846.05;1688293;84;21101;-64
2022/10/28 01:08:03;;;;;;;56.68;28.80;;;;;;;3.96;92.26;95842.73;1698234;83;21033;-64
2022/10/28 01:10:54;;;;;;;59.05;28.20;;;;;;;3.93;92.32;95849.50;1695893;83;21160;-65
2022/10/28 01:14:00;;;;;;;50.05;26.50;;;;;;;3.96;92.69;95854.19;1699150;82;21028;-63
2022/10/28 01:16:42;;;;;;;47.40;24.23;;;;;;;4.03;93.00;95846.84;1705856;83;21516;-65
2022/10/28 01:19:38;;;;;;;47.17;25.50;;;;;;;4.03;92.67;95852.89;1713296;83;21598;-64
2022/10/28 01:22:29;;;;;;;53.75;26.05;;;;;;;3.97;92.50;95853.81;1635923;85;21022;-62
2022/10/28 01:25:42;;;;;;;43.28;24.50;;;;;;;3.99;92.69;95850.70;1696530;83;21183;-63
2022/10/28 01:28:26;;;;;;;45.80;26.25;;;;;;;3.98;92.68;95851.30;1698578;83;20981;-63
2022/10/28 01:31:16;;;;;;;45.48;24.92;;;;;;;4.01;92.96;95854.62;1666709;83;21026;-64
2022/10/28 01:33:57;;;;;;;45.40;25.25;;;;;;;4.07;93.11;95858.54;1692964;83;20998;-65
2022/10/28 01:36:39;;;;;;;44.75;25.97;;;;;;;4.10;92.95;95865.18;1714327;82;21114;-64
2022/10/28 01:39:29;;;;;;;46.25;24.92;;;;;;;4.13;93.04;95858.98;1691468;83;21183;-63
2022/10/28 01:42:27;;;;;;;38.67;23.22;;;;;;;4.19;92.84;95862.89;1699000;84;21088;-63
2022/10/28 01:45:20;;;;;;;43.42;23.95;;;;;;;4.20;92.24;95854.36;1702016;82;21056;-63
2022/10/28 01:48:04;;;;;;;40.52;23.60;;;;;;;4.18;91.99;95862.13;1708278;83;21086;-67
2022/10/28 01:50:42;;;;;;;49.13;22.50;;;;;;;4.11;91.81;95850.41;1669666;85;21015;-63
2022/10/28 01:53:12;;;;;;;37.73;22.82;;;;;;;4.02;91.71;95854.82;1715100;83;21107;-64
2022/10/28 01:55:43;;;;;;;41.88;23.98;;;;;;;3.93;91.65;95853.02;1711903;83;20974;-63
2022/10/28 01:58:12;;;;;;;43.23;24.35;;;;;;;3.85;91.79;95847.30;1700921;83;20982;-64
2022/10/28 02:00:40;;;;;;;40.45;22.20;;;;;;;3.83;91.93;95848.26;1700615;83;21046;-64
2022/10/28 02:03:07;;;;;;;39.80;22.37;;;;;;;3.81;92.14;95838.33;1704614;83;21240;-64
2022/10/28 02:05:44;;;;;;;39.27;22.25;;;;;;;3.82;92.51;95838.53;1696803;83;21194;-64
2022/10/28 02:08:19;;;;;;;40.20;23.25;;;;;;;3.83;92.72;95844.17;1720592;83;21000;-64
2022/10/28 02:11:21;;;;;;;40.92;22.87;;;;;;;3.85;92.77;95850.02;1702358;83;21084;-62
2022/10/28 02:14:08;;;;;;;40.55;22.27;;;;;;;3.86;92.59;95852.18;1698119;83;21086;-64
2022/10/28 02:16:50;;;;;;;43.90;24.45;;;;;;;3.83;92.68;95848.26;1701077;83;21068;-63
2022/10/28 02:19:38;;;;;;;38.97;24.30;;;;;;;3.83;93.02;95842.81;1701946;83;22318;-63
2022/10/28 02:22:10;;;;;;;42.53;25.30;;;;;;;3.85;93.18;95848.66;1692366;83;20974;-64
2022/10/28 02:24:49;;;;;;;31.45;21.35;;;;;;;3.87;93.40;95849.06;1703806;83;20997;-65
2022/10/28 02:27:34;;;;;;;29.70;19.25;;;;;;;3.93;93.57;95846.78;1698264;82;21624;-64
2022/10/28 02:30:24;;;;;;;30.35;19.42;;;;;;;4.00;93.64;95837.28;1645933;86;21103;-62
2022/10/28 02:32:55;;;;;;;31.20;20.43;;;;;;;4.07;93.79;95841.44;1708809;83;21416;-64
2022/10/28 02:35:32;;;;;;;30.90;18.75;;;;;;;4.08;93.84;95836.96;1674848;84;21010;-64
2022/10/28 02:38:01;;;;;;;29.77;18.45;;;;;;;4.08;93.73;95834.23;1703149;82;20996;-63
2022/10/28 02:40:30;;;;;;;32.60;20.55;;;;;;;4.05;93.68;95831.51;1694123;84;21032;-64
2022/10/28 02:43:01;;;;;;;24.12;17.65;;;;;;;4.07;93.92;95835.40;1688278;83;21226;-64
2022/10/28 02:45:35;;;;;;;26.70;17.87;;;;;;;4.16;93.94;95830.41;1698484;83;21476;-64
2022/10/28 02:48:06;;;;;;;29.90;20.95;;;;;;;4.20;93.71;95830.45;1693809;83;21004;-63
2022/10/28 02:50:37;;;;;;;30.15;19.90;;;;;;;4.24;93.78;95830.64;1671720;83;20985;-63
2022/10/28 02:53:18;;;;;;;43.17;20.85;;;;;;;4.30;94.12;95826.42;1709797;82;21539;-63
2022/10/28 02:55:47;;;;;;;27.93;20.40;;;;;;;4.34;94.03;95829.94;1690252;83;21107;-64
2022/10/28 02:58:14;;;;;;;32.42;20.08;;;;;;;4.34;93.62;95830.51;1686251;83;21508;-64
2022/10/28 03:00:45;;;;;;;29.32;19.87;;;;;;;4.37;93.74;95831.10;1695066;84;21590;-64
2022/10/28 03:03:14;;;;;;;42.30;24.63;;;;;;;4.42;93.62;95832.89;1691562;83;21036;-65
2022/10/28 03:05:44;;;;;;;96.37;47.40;;;;;;;4.43;93.40;95829.00;1697180;83;20961;-64
2022/10/28 03:08:10;;;;;;;121.05;54.20;;;;;;;4.46;93.58;95828.23;1713312;83;20965;-63
2022/10/28 03:10:39;;;;;;;53.55;31.68;;;;;;;4.41;93.18;95828.61;1669766;84;21633;-63
2022/10/28 03:13:06;;;;;;;51.00;28.52;;;;;;;4.38;93.16;95832.70;1695545;83;21060;-63
2022/10/28 03:15:34;;;;;;;61.80;33.75;;;;;;;4.31;93.00;95829.34;1698217;83;21053;-62
2022/10/28 03:18:01;;;;;;;42.70;27.50;;;;;;;4.27;93.04;95827.16;1694320;84;21013;-63
2022/10/28 03:20:28;;;;;;;39.30;25.20;;;;;;;4.26;93.07;95832.41;1706264;84;21080;-63
2022/10/28 03:22:54;;;;;;;38.28;25.80;;;;;;;4.19;93.05;95832.37;1703801;83;21136;-64
2022/10/28 03:25:22;;;;;;;36.77;23.70;;;;;;;4.14;93.10;95832.73;1670392;83;20974;-64
2022/10/28 03:27:48;;;;;;;31.25;22.67;;;;;;;4.12;93.15;95822.81;1704968;83;21019;-64
2022/10/28 03:30:17;;;;;;;34.80;22.52;;;;;;;4.09;93.06;95822.19;1689521;83;21124;-63
2022/10/28 03:32:43;;;;;;;51.28;29.85;;;;;;;4.09;93.26;95820.82;1702375;83;21137;-64
2022/10/28 03:35:10;;;;;;;52.62;29.63;;;;;;;4.11;93.57;95819.89;1672993;84;22230;-64
2022/10/28 03:37:46;;;;;;;38.92;25.62;;;;;;;4.13;93.57;95818.92;1705041;84;21032;-62
2022/10/28 03:40:11;;;;;;;55.05;28.07;;;;;;;4.08;93.23;95828.02;1679132;84;21000;-63
2022/10/28 03:42:40;;;;;;;49.30;28.42;;;;;;;4.01;93.22;95826.03;1694652;84;21032;-63
2022/10/28 03:45:09;;;;;;;100.97;46.00;;;;;;;3.97;93.11;95827.16;1694042;83;21062;-63
2022/10/28 03:47:37;;;;;;;109.00;49.75;;;;;;;3.97;93.36;95829.31;1702956;83;21026;-63
2022/10/28 03:50:06;;;;;;;38.92;23.73;;;;;;;4.03;93.99;95829.16;1691633;83;21139;-63
2022/10/28 03:52:32;;;;;;;42.85;27.35;;;;;;;4.07;93.75;95824.50;1677734;83;21453;-63
2022/10/28 03:55:01;;;;;;;26.55;18.65;;;;;;;4.02;93.36;95833.03;1698692;83;21030;-63
2022/10/28 03:57:32;;;;;;;20.70;15.35;;;;;;;3.95;93.01;95828.92;1686323;83;21016;-64
2022/10/28 03:59:59;;;;;;;18.70;13.22;;;;;;;3.83;92.57;95829.80;1699370;83;21191;-64
2022/10/28 04:02:26;;;;;;;17.35;13.40;;;;;;;3.73;92.62;95831.25;1703374;83;21073;-62
2022/10/28 04:04:53;;;;;;;18.57;13.75;;;;;;;3.67;92.75;95829.28;1701516;84;20972;-63
2022/10/28 04:07:19;;;;;;;21.25;15.43;;;;;;;3.64;92.97;95832.73;1691685;83;21443;-63
2022/10/28 04:09:50;;;;;;;25.37;17.87;;;;;;;3.60;93.20;95830.56;1701539;82;21512;-64
2022/10/28 04:12:16;;;;;;;28.92;17.35;;;;;;;3.59;93.39;95829.80;1672601;83;21195;-63
2022/10/28 04:14:43;;;;;;;20.27;14.63;;;;;;;3.60;93.49;95827.28;1701971;83;21448;-64
2022/10/28 04:17:11;;;;;;;20.52;14.50;;;;;;;3.61;93.79;95819.32;1671060;84;21151;-62
2022/10/28 04:19:39;;;;;;;18.10;11.90;;;;;;;3.71;94.43;95819.97;1703565;83;21017;-66
2022/10/28 04:22:06;;;;;;;16.30;12.23;;;;;;;3.77;94.24;95820.41;1703576;83;21027;-65
2022/10/28 04:24:35;;;;;;;16.37;13.20;;;;;;;3.77;94.27;95818.48;1699003;82;21583;-64
2022/10/28 04:27:03;;;;;;;14.45;11.43;;;;;;;3.77;94.29;95818.48;1705709;83;20976;-64
2022/10/28 04:29:32;;;;;;;20.92;12.43;;;;;;;3.85;94.58;95817.36;1702545;84;20989;-63
2022/10/28 04:31:58;;;;;;;18.62;12.68;;;;;;;3.87;94.41;95817.77;1697951;84;21033;-64
2022/10/28 04:34:25;;;;;;;23.18;14.07;;;;;;;3.87;94.29;95817.77;1675542;83;21126;-67
2022/10/28 04:36:52;;;;;;;19.10;13.50;;;;;;;3.80;94.13;95813.64;1688717;83;21259;-65
2022/10/28 04:39:18;;;;;;;30.88;21.25;;;;;;;3.79;94.50;95821.60;1694004;83;21029;-65
2022/10/28 04:41:45;;;;;;;20.97;15.70;;;;;;;3.79;94.53;95819.45;1700104;83;21080;-65
2022/10/28 04:44:12;;;;;;;22.25;15.68;;;;;;;3.81;94.60;95817.92;1686414;84;20997;-63
2022/10/28 04:46:40;;;;;;;22.77;15.50;;;;;;;3.84;94.75;95819.88;1701034;84;20957;-66
2022/10/28 04:49:07;;;;;;;21.27;15.50;;;;;;;3.84;94.53;95814.44;1696141;83;21255;-66
2022/10/28 04:51:34;;;;;;;22.82;16.75;;;;;;;3.85;94.68;95814.64;1700895;83;21024;-63
2022/10/28 04:54:00;;;;;;;21.05;14.53;;;;;;;3.89;94.87;95808.63;1699589;82;21023;-61
2022/10/28 04:56:29;;;;;;;26.02;15.72;;;;;;;3.99;95.01;95811.23;1695806;83;21056;-61
2022/10/28 04:58:56;;;;;;;27.52;19.35;;;;;;;4.07;94.83;95808.77;1692677;83;20968;-70
2022/10/28 05:01:23;;;;;;;28.17;17.65;;;;;;;4.13;94.69;95806.67;1667675;84;21345;-63
2022/10/28 05:03:50;;;;;;;28.10;19.90;;;;;;;4.21;94.78;95804.18;1697854;83;20969;-63
2022/10/28 05:06:17;;;;;;;28.23;17.40;;;;;;;4.28;94.58;95802.08;1691914;83;21093;-63
2022/10/28 05:08:44;;;;;;;22.77;15.20;;;;;;;4.34;94.63;95808.15;1666902;83;21040;-62
2022/10/28 05:11:12;;;;;;;21.52;15.48;;;;;;;4.42;94.43;95808.37;1702822;83;20948;-63
2022/10/28 05:13:39;;;;;;;20.20;15.35;;;;;;;4.48;94.19;95801.98;1692563;83;21269;-63
2022/10/28 05:16:07;;;;;;;36.70;24.90;;;;;;;4.56;94.08;95809.80;1720341;82;21121;-65
2022/10/28 05:18:34;;;;;;;29.10;21.37;;;;;;;4.64;93.78;95803.81;1704936;82;21081;-63
2022/10/28 05:21:03;;;;;;;28.10;21.10;;;;;;;4.63;93.28;95811.19;1686067;83;21081;-63
2022/10/28 05:23:31;;;;;;;31.30;21.35;;;;;;;4.65;93.58;95810.25;1712799;81;20943;-64
2022/10/28 05:25:57;;;;;;;25.70;17.25;;;;;;;4.76;93.80;95812.42;1710950;83;21264;-63
2022/10/28 05:28:25;;;;;;;131.60;95.70;;;;;;;4.91;93.36;95818.69;1708108;83;21093;-63
2022/10/28 05:30:52;;;;;;;39.35;27.20;;;;;;;4.94;92.86;95812.50;1702758;83;21097;-65
2022/10/28 05:33:20;;;;;;;59.95;41.25;;;;;;;5.03;92.90;95815.05;1671414;84;21046;-65
2022/10/28 05:35:47;;;;;;;32.45;22.58;;;;;;;5.08;92.57;95816.03;1647452;83;21026;-63
2022/10/28 05:38:13;;;;;;;39.05;20.80;;;;;;;5.14;92.25;95815.08;1668092;84;21271;-64
2022/10/28 05:40:40;;;;;;;30.40;18.95;;;;;;;5.12;91.67;95815.45;1678909;83;21168;-64
2022/10/28 05:43:08;;;;;;;32.67;20.12;;;;;;;5.17;91.74;95821.89;1669709;84;21058;-63
2022/10/28 05:45:35;;;;;;;34.60;19.77;;;;;;;5.22;91.62;95818.80;1700756;83;21101;-64
2022/10/28 05:48:02;;;;;;;34.53;23.40;;;;;;;5.29;91.78;95821.53;1708589;83;21006;-63
2022/10/28 05:50:33;;;;;;;45.85;28.00;;;;;;;5.39;91.77;95820.78;1701203;81;21255;-64
2022/10/28 05:53:00;;;;;;;47.05;23.77;;;;;;;5.45;91.53;95817.27;1698690;81;21040;-61
2022/10/28 05:55:28;;;;;;;33.15;22.07;;;;;;;5.57;91.59;95824.31;1692647;82;21112;-62
2022/10/28 05:57:56;;;;;;;26.42;18.20;;;;;;;5.71;91.49;95817.48;1690889;83;21865;-67
2022/10/28 06:00:24;;;;;;;34.15;18.15;;;;;;;5.92;91.63;95822.97;1699012;82;21047;-61
2022/10/28 06:02:50;;;;;;;27.37;19.57;;;;;;;6.07;90.78;95827.25;1679197;83;21265;-66
2022/10/28 06:05:19;;;;;;;30.30;18.62;;;;;;;6.15;90.30;95816.53;1688556;82;21025;-63
2022/10/28 06:07:45;;;;;;;24.52;17.52;;;;;;;6.26;90.56;95824.10;1667218;82;21074;-61
2022/10/28 06:10:13;;;;;;;36.95;19.73;;;;;;;6.42;89.69;95827.20;1698151;82;22029;-63
2022/10/28 06:12:40;;;;;;;27.00;19.27;;;;;;;6.49;89.07;95817.63;1697251;82;21017;-64
2022/10/28 06:15:07;;;;;;;42.95;25.62;;;;;;;6.56;88.55;95812.13;1690554;82;21194;-61
2022/10/28 06:17:38;;;;;;;35.35;22.70;;;;;;;6.61;88.12;95824.02;1697211;82;21029;-67
2022/10/28 06:20:07;;;;;;;46.53;32.00;;;;;;;6.68;87.68;95824.02;1692332;83;21133;-67
2022/10/28 06:22:37;;;;;;;36.48;26.85;;;;;;;6.65;87.38;95824.78;1689866;82;21894;-65
2022/10/28 06:25:13;;;;;;;31.25;21.75;;;;;;;6.72;88.00;95824.17;1677854;83;21649;-63
2022/10/28 06:27:42;;;;;;;30.45;19.30;;;;;;;6.95;88.06;95824.50;1671166;82;22833;-65
2022/10/28 06:30:11;;;;;;;30.82;21.42;;;;;;;7.10;87.31;95819.13;1666345;82;21012;-65
2022/10/28 06:32:38;;;;;;;45.03;28.15;;;;;;;7.20;87.20;95820.47;1684558;82;21011;-63
2022/10/28 06:35:05;;;;;;;37.85;22.70;;;;;;;7.32;86.66;95824.70;1687462;81;22277;-63
2022/10/28 06:37:32;;;;;;;43.68;25.43;;;;;;;7.34;85.69;95816.87;1696960;82;21006;-60
2022/10/28 06:39:59;;;;;;;28.62;20.72;;;;;;;7.33;85.53;95816.08;1696453;82;21154;-62
2022/10/28 06:42:26;;;;;;;25.45;19.35;;;;;;;7.33;85.07;95816.08;1691040;82;21185;-61
2022/10/28 06:44:53;;;;;;;27.45;21.42;;;;;;;7.29;84.92;95820.80;1695038;81;21560;-62
2022/10/28 06:47:21;;;;;;;40.50;28.85;;;;;;;7.28;84.74;95816.50;1703730;81;21069;-64
2022/10/28 06:49:48;;;;;;;37.50;26.17;;;;;;;7.33;84.95;95816.08;1705403;82;21064;-63
2022/10/28 06:52:15;;;;;;;37.73;27.75;;;;;;;7.44;85.11;95814.06;1675476;82;21257;-64
2022/10/28 06:54:42;;;;;;;42.75;25.35;;;;;;;7.48;84.20;95813.44;1697209;83;21090;-63
2022/10/28 06:57:11;;;;;;;33.55;20.32;;;;;;;7.46;84.03;95817.17;1699967;82;21071;-65
2022/10/28 06:59:39;;;;;;;43.98;25.08;;;;;;;7.57;84.72;95813.79;1700286;82;21136;-64
2022/10/28 07:02:11;;;;;;;20.17;14.95;;;;;;;7.76;84.33;95809.15;1695542;82;21002;-65
2022/10/28 07:04:41;;;;;;;20.90;14.23;;;;;;;7.91;83.70;95811.94;1700640;81;21226;-63
2022/10/28 07:07:11;;;;;;;23.65;17.27;;;;;;;7.99;83.28;95805.23;1709845;81;21772;-64
2022/10/28 07:09:43;;;;;;;35.38;16.23;;;;;;;8.05;82.97;95803.61;1699025;82;21018;-64
2022/10/28 07:12:12;;;;;;;21.85;13.35;;;;;;;8.01;82.60;95808.34;1692069;82;21049;-63
2022/10/28 07:14:40;;;;;;;22.35;13.10;;;;;;;7.97;82.49;95801.33;1703511;82;21116;-64
2022/10/28 07:17:07;;;;;;;21.27;11.55;;;;;;;7.97;82.53;95805.45;1709320;82;22245;-62
2022/10/28 07:19:37;;;;;;;21.85;11.40;;;;;;;8.01;82.25;95800.70;1702088;80;21286;-64
2022/10/28 07:22:04;;;;;;;20.55;13.40;;;;;;;8.09;82.25;95802.98;1691421;82;20996;-65
2022/10/28 07:24:31;;;;;;;22.48;13.90;;;;;;;8.24;82.28;95799.56;1702383;81;21041;-66
2022/10/28 07:27:01;;;;;;;20.43;13.48;;;;;;;8.26;82.13;95795.22;1701093;82;21075;-66
2022/10/28 07:29:29;;;;;;;21.12;11.65;;;;;;;8.28;81.89;95795.58;1718193;82;21097;-65
2022/10/28 07:31:56;;;;;;;21.35;10.95;;;;;;;8.27;81.88;95799.52;1697657;82;21952;-64
2022/10/28 07:34:23;;;;;;;19.17;10.82;;;;;;;8.31;81.99;95792.05;1705800;82;21018;-64
2022/10/28 07:36:53;;;;;;;22.20;12.33;;;;;;;8.43;82.24;95789.39;1706877;82;21080;-64
2022/10/28 07:39:21;;;;;;;18.00;13.25;;;;;;;8.55;81.80;95781.41;1709950;81;21073;-66
2022/10/28 07:41:48;;;;;;;19.30;12.10;;;;;;;8.67;81.82;95779.52;1689798;83;21148;-65
2022/10/28 07:44:14;;;;;;;12.82;11.22;;;;;;;8.79;81.36;95774.84;1705714;82;21046;-65
2022/10/28 07:46:41;;;;;;;16.37;11.15;;;;;;;8.86;81.09;95774.78;1705106;82;22047;-65
2022/10/28 07:49:08;;;;;;;15.00;11.35;;;;;;;8.95;80.62;95770.93;1716013;81;21527;-68
2022/10/28 07:51:35;;;;;;;19.98;11.75;;;;;;;9.01;80.30;95767.90;1699291;82;21013;-64
2022/10/28 07:54:02;;;;;;;16.57;10.25;;;;;;;9.15;80.32;95771.26;1707227;81;21851;-63
2022/10/28 07:56:29;;;;;;;15.93;10.55;;;;;;;9.38;80.20;95767.78;1695297;81;21644;-63
2022/10/28 07:58:56;;;;;;;15.20;10.30;;;;;;;9.54;79.32;95770.69;1671404;82;21929;-62
2022/10/28 08:01:22;;;;;;;23.70;10.38;;;;;;;9.60;78.57;95763.55;1696700;82;21824;-66
2022/10/28 08:03:49;;;;;;;16.80;11.05;;;;;;;9.57;78.32;95764.36;1697219;83;21541;-63
2022/10/28 08:06:19;;;;;;;14.65;9.83;;;;;;;9.59;78.05;95760.01;1697426;82;22344;-65
2022/10/28 08:08:48;;;;;;;26.65;10.15;;;;;;;9.64;77.97;95767.02;1686588;82;21066;-64
2022/10/28 08:11:22;;;;;;;19.00;10.78;;;;;;;9.67;77.88;95760.67;1699025;81;21041;-65
2022/10/28 08:13:49;;;;;;;16.90;11.33;;;;;;;9.74;78.29;95759.97;1676886;83;21023;-64
2022/10/28 08:16:16;;;;;;;28.30;10.48;;;;;;;9.90;77.85;95757.94;1690675;83;21092;-65
2022/10/28 08:18:44;;;;;;;13.53;11.03;;;;;;;10.04;77.53;95754.99;1684591;83;21365;-63
2022/10/28 08:21:12;;;;;;;12.95;11.35;;;;;;;10.14;77.02;95765.05;1698617;82;21205;-66
2022/10/28 08:23:40;;;;;;;15.03;10.65;;;;;;;10.21;77.06;95762.16;1702771;82;21033;-63
2022/10/28 08:26:06;;;;;;;14.10;9.55;;;;;;;10.40;76.65;95766.92;1701599;83;21083;-69
2022/10/28 08:28:34;;;;;;;35.08;11.35;;;;;;;10.60;75.81;95760.84;1695434;82;21033;-63
2022/10/28 08:31:02;;;;;;;16.65;10.03;;;;;;;10.78;75.70;95756.55;1697955;81;21894;-64
2022/10/28 08:33:32;;;;;;;15.20;9.75;;;;;;;11.05;75.67;95753.82;1709392;81;21075;-64
2022/10/28 08:35:59;;;;;;;15.70;11.00;;;;;;;11.33;75.84;95746.92;1702093;83;21511;-66
2022/10/28 08:38:25;;;;;;;16.20;9.95;;;;;;;11.59;75.10;95752.84;1700929;82;21114;-61
2022/10/28 08:41:19;;;;;;;13.28;9.23;;;;;;;11.81;74.69;95749.16;1709823;82;21069;-65
2022/10/28 08:44:32;;;;;;;10.00;8.48;;;;;;;11.97;73.77;95743.66;1712304;83;21174;-64
2022/10/28 08:47:10;;;;;;;14.13;9.98;;;;;;;12.13;71.86;95746.41;1700034;83;21961;-64
2022/10/28 08:49:40;;;;;;;17.52;9.68;;;;;;;12.17;70.75;95741.56;1701058;82;21090;-63
2022/10/28 08:52:49;;;;;;;12.82;7.95;;;;;;;12.33;70.59;95742.13;1720220;82;21137;-63
2022/10/28 08:55:32;;;;;;;10.80;6.45;;;;;;;12.52;69.47;95735.71;1670925;83;21630;-63
2022/10/28 08:58:09;;;;;;;8.30;7.05;;;;;;;12.82;69.21;95733.28;1674373;82;21529;-63
2022/10/28 09:00:36;;;;;;;10.08;7.60;;;;;;;13.08;68.62;95738.45;1694415;82;21085;-66
2022/10/28 09:03:21;;;;;;;16.10;8.48;;;;;;;13.31;68.35;95733.25;1704362;82;21101;-67
2022/10/28 09:05:51;;;;;;;12.88;8.13;;;;;;;13.51;68.08;95731.06;1677719;83;21143;-65
2022/10/28 09:08:23;;;;;;;16.10;7.45;;;;;;;13.74;67.62;95730.13;1691010;83;21084;-65
2022/10/28 09:11:01;;;;;;;14.55;6.55;;;;;;;13.91;67.24;95726.02;1676184;83;21292;-65
2022/10/28 09:13:49;;;;;;;6.35;5.60;;;;;;;14.18;66.34;95719.40;1691616;82;21540;-65
2022/10/28 09:16:30;;;;;;;12.23;5.90;;;;;;;14.49;64.59;95719.69;1680285;83;21060;-64
2022/10/28 09:19:02;;;;;;;;;;;;;;;14.78;63.68;95710.55;1685230;82;21080;-64
2022/10/28 09:21:47;;;;;;;6.22;5.22;;;;;;;15.06;62.76;95706.75;1697031;82;20151;-64
2022/10/28 09:24:29;;;;;;;8.40;5.33;;;;;;;15.28;62.03;95713.03;1692276;82;21868;-64
2022/10/28 09:27:34;;;;;;;8.13;5.45;;;;;;;15.56;61.23;95703.64;1693279;82;21030;-64
2022/10/28 09:30:51;;;;;;;8.23;5.53;;;;;;;15.83;60.56;95705.14;1711352;81;21020;-61
2022/10/28 09:33:32;;;;;;;6.12;4.53;;;;;;;16.04;59.30;95703.48;1703255;82;21043;-66
2022/10/28 09:35:59;;;;;;;6.75;4.22;;;;;;;16.27;58.27;95696.00;1690728;82;21031;-64
2022/10/28 09:38:33;;;;;;;5.03;4.22;;;;;;;16.40;57.43;95702.98;1681584;84;21477;-64
2022/10/28 09:41:17;;;;;;;5.05;4.55;;;;;;;16.51;56.44;95697.13;1687628;82;21201;-63
2022/10/28 09:43:52;;;;;;;6.47;4.90;;;;;;;16.57;55.97;95697.29;1715868;81;21676;-65
2022/10/28 09:46:19;;;;;;;18.15;5.05;;;;;;;16.65;55.92;95695.73;1699218;82;21029;-64
2022/10/28 09:48:51;;;;;;;6.20;4.47;;;;;;;16.97;55.86;95686.16;1660132;84;21566;-64
2022/10/28 09:51:23;;;;;;;10.40;5.17;;;;;;;17.38;54.42;95688.25;1687912;81;21335;-65
2022/10/28 09:53:55;;;;;;;9.15;4.65;;;;;;;17.69;53.33;95681.03;1691501;82;21180;-65
2022/10/28 09:56:25;;;;;;;9.78;4.95;;;;;;;17.98;52.75;95679.19;1702658;83;21059;-68
2022/10/28 09:58:52;;;;;;;7.50;5.47;;;;;;;18.36;52.29;95666.14;1693911;82;21046;-66
2022/10/28 10:01:20;;;;;;;6.30;5.25;;;;;;;18.88;52.20;95675.78;1713968;81;21577;-67
2022/10/28 10:03:49;;;;;;;29.57;6.92;;;;;;;19.36;50.66;95658.42;1698825;82;21246;-66
2022/10/28 10:06:26;;;;;;;12.78;5.17;;;;;;;19.79;49.91;95653.43;1704256;82;21081;-70
2022/10/28 10:08:56;;;;;;;10.35;5.47;;;;;;;20.09;49.35;95653.50;1703375;81;21079;-70
2022/10/28 10:11:43;;;;;;;6.50;4.67;;;;;;;20.42;48.78;95656.75;1688407;83;21057;-71
2022/10/28 10:14:20;;;;;;;7.72;5.10;;;;;;;20.94;46.26;95654.23;1692247;83;20999;-70
2022/10/28 10:16:54;;;;;;;13.60;6.83;;;;;;;21.23;45.77;95648.41;1664586;84;21096;-68
2022/10/28 10:19:21;;;;;;;9.65;5.65;;;;;;;21.63;45.37;95644.86;1710041;82;21094;-72
2022/10/28 10:21:53;;;;;;;12.03;5.67;;;;;;;21.97;45.58;95640.25;1718999;81;21045;-69
2022/10/28 10:24:32;;;;;;;8.68;4.85;;;;;;;22.29;44.77;95644.66;1712613;82;21081;-65
2022/10/28 10:27:13;;;;;;;6.37;5.45;;;;;;;22.79;43.53;95638.67;1676546;85;21065;-65
2022/10/28 10:29:43;;;;;;;8.30;5.12;;;;;;;23.44;42.91;95636.55;1671631;85;21338;-64
2022/10/28 10:32:27;;;;;;;8.55;4.97;;;;;;;24.01;42.18;95634.13;1673556;82;21093;-64
2022/10/28 10:35:01;;;;;;;12.95;5.47;;;;;;;24.53;41.46;95630.09;1707812;82;20994;-63
2022/10/28 10:37:32;;;;;;;7.90;5.67;;;;;;;24.95;39.89;95631.05;1727485;82;21030;-66
2022/10/28 10:40:29;;;;;;;12.13;6.95;;;;;;;25.47;39.21;95627.56;1695326;82;21093;-64
2022/10/28 10:43:21;;;;;;;11.85;5.72;;;;;;;25.92;38.19;95629.53;1696376;84;21115;-60
2022/10/28 10:46:10;;;;;;;10.15;5.00;;;;;;;26.49;36.77;95622.94;1686963;83;20969;-64
2022/10/28 10:48:37;;;;;;;11.30;6.45;;;;;;;27.03;36.35;95624.21;1705720;84;21601;-62
2022/10/28 10:51:22;;;;;;;8.10;5.80;;;;;;;27.32;35.12;95624.08;1703512;83;21028;-64
2022/10/28 10:53:53;;;;;;;13.38;6.87;;;;;;;27.59;35.44;95612.99;1656728;83;21047;-63
2022/10/28 10:56:23;;;;;;;;;;;;;;;27.88;34.98;95620.53;1713908;82;21142;-64
2022/10/28 10:58:52;;;;;;;7.47;4.28;;;;;;;27.98;34.19;95615.97;1707343;83;20142;-62
2022/10/28 11:01:22;;;;;;;12.85;4.83;;;;;;;27.80;34.43;95619.62;1696170;83;21113;-63
2022/10/28 11:04:01;;;;;;;3.47;3.17;;;;;;;27.60;33.78;95613.77;1693421;82;21066;-62
2022/10/28 11:06:37;;;;;;;12.68;4.45;;;;;;;27.27;33.96;95612.85;1670579;83;21085;-62
2022/10/28 11:09:08;;;;;;;9.28;4.60;;;;;;;26.94;34.64;95615.46;1683406;83;21503;-63
2022/10/28 11:11:37;;;;;;;8.63;4.50;;;;;;;26.99;34.46;95605.36;1682963;83;27585;-64
2022/10/28 11:14:12;;;;;;;8.63;4.37;;;;;;;27.02;34.72;95600.83;1703210;83;21452;-63
2022/10/28 11:16:54;;;;;;;6.17;4.40;;;;;;;27.16;34.48;95600.28;1700171;83;21170;-65
2022/10/28 11:19:34;;;;;;;6.22;3.35;;;;;;;27.06;33.84;95592.80;1690315;83;20976;-63
2022/10/28 11:22:10;;;;;;;6.28;3.40;;;;;;;26.71;33.65;95590.86;1697741;83;21248;-66
2022/10/28 11:25:11;;;;;;;3.30;2.65;;;;;;;26.42;34.63;95578.34;1709426;83;21108;-65
2022/10/28 11:27:47;;;;;;;6.87;3.67;;;;;;;26.17;35.48;95583.12;1691936;82;21530;-63
2022/10/28 11:30:18;;;;;;;9.13;3.20;;;;;;;26.11;35.31;95580.34;1693220;81;21074;-66
2022/10/28 11:33:08;;;;;;;6.60;3.33;;;;;;;26.15;34.93;95581.47;1693823;82;21046;-63
2022/10/28 11:36:01;;;;;;;23.62;3.70;;;;;;;26.35;34.60;95581.77;1698308;82;21372;-65
2022/10/28 11:38:56;;;;;;;13.30;3.87;;;;;;;26.39;34.26;95587.87;1664244;83;21086;-66
2022/10/28 11:41:34;;;;;;;8.20;4.78;;;;;;;26.19;34.95;95573.47;1680605;83;22359;-65
2022/10/28 11:44:01;;;;;;;7.42;5.47;;;;;;;26.23;35.02;95573.30;1631431;85;21398;-64
2022/10/28 11:47:05;;;;;;;10.05;5.47;;;;;;;26.31;34.25;95572.06;1677313;83;21597;-71
2022/10/28 11:50:02;;;;;;;10.70;6.70;;;;;;;26.20;34.52;95563.08;1674646;84;21241;-65
2022/10/28 11:52:47;;;;;;;8.45;5.00;;;;;;;26.25;34.88;95561.47;1687580;83;21566;-62